Weather at Scott Ranch Airport

Public forecast

Using degrees Fahrenheit for public forecast. Weather courtesy of forecast.io.

Closest aviation weather report (METAR) to Scott Ranch Airport

Closest report is Bowie Municipal Airport, 18.1 nm (33.5 km) ENE. Retrieved 2022/06/24 21:35 UTC (18 minutes ago):

K0F2 242135Z AUTO 15010G16KT 10SM CLR 38/16 A2986 RMK AO2 T03770156

Closest aviation forecast (TAF) to Scott Ranch Airport

Closest forecast is Sheppard Air Force Base-Wichita Falls Municipal Airport, 34.2 nm (63.4 km) NNW. Retrieved 2022/06/24 18:22 UTC (4 hours ago):

TAF KSPS 241720Z 2418/2518 20013G21KT P6SM FEW080 FM250000 16012KT P6SM SKC FM250800 17008KT P6SM SKC WS020/20040KT FM251300 22012G20KT P6SM SKC